Seremban, Malaysia
Current Conditions -  °F | °C
As of 2:30 AM on Wednesday 22 Oct 2014 (Local Time) from WMKK Reporting Station
Broken Clouds Broken Clouds  
Wind Chill: 75°   Ceiling: 28000
Heat Index: 75°   Visibility: 5mi
Dew Point: 73°   Wind: 1mph
Humidity: 94%   Direction: 30°NNE
Pressure: 29.85"   Gusts: NA
Location:  2.71°N, 101.95°E
Report Text: WMKK 211830Z 03001KT 8000 FEW030 SCT140 BKN280 24/23 Q1011 NOSIG
Loading
Personal Weather Stations






























Interactive Weather Map
Tropical Storm Tracking
New forecast layout! Learn more

10-Day Weather Forecast

Advertisements
Track Severe Weather on mobile